Time;durP1;ratioP1;P1;durP2;ratioP2;P2;SDS_P1;SDS_P2;PMS_P1;PMS_P2;Temp;Humidity;BMP_temperature;BMP_pressure;BME280_temperature;BME280_humidity;BME280_pressure;Samples;Min_cycle;Max_cycle;Signal;HPM_P1;HPM_P2
2021/09/27 00:02:06;;;;;;;10.25;8.00;;;19.00;93.70;;;;;;5053160;28;20029;-85
2021/09/27 00:04:32;;;;;;;9.52;8.20;;;18.90;93.80;;;;;;5035377;28;20099;-86
2021/09/27 00:06:58;;;;;;;14.73;8.98;;;18.90;93.70;;;;;;5035069;28;20033;-88
2021/09/27 00:09:32;;;;;;;11.15;8.65;;;18.90;93.70;;;;;;5053124;28;20037;-85
2021/09/27 00:12:03;;;;;;;9.13;8.05;;;18.80;93.70;;;;;;5051976;28;20024;-84
2021/09/27 00:14:29;;;;;;;9.95;7.40;;;18.70;93.80;;;;;;5019653;28;20397;-85
2021/09/27 00:16:55;;;;;;;10.27;7.97;;;18.70;93.90;;;;;;5018826;28;20128;-85
2021/09/27 00:19:23;;;;;;;10.38;8.23;;;18.70;94.10;;;;;;5043667;28;20048;-86
2021/09/27 00:21:50;;;;;;;11.43;8.18;;;18.60;94.20;;;;;;5053033;28;20084;-86
2021/09/27 00:24:16;;;;;;;11.57;8.73;;;18.60;94.40;;;;;;5035140;28;20017;-85
2021/09/27 00:26:41;;;;;;;10.18;7.97;;;18.60;94.50;;;;;;5053376;28;20393;-84
2021/09/27 00:29:07;;;;;;;11.35;8.98;;;18.50;94.60;;;;;;5052541;28;20037;-85
2021/09/27 00:31:32;;;;;;;10.45;8.57;;;18.50;94.70;;;;;;5035599;28;20475;-85
2021/09/27 00:33:58;;;;;;;10.40;8.50;;;18.50;94.80;;;;;;5034923;28;20037;-85
2021/09/27 00:36:24;;;;;;;11.05;8.07;;;18.50;94.80;;;;;;5034855;28;20036;-86
2021/09/27 00:38:50;;;;;;;11.13;8.60;;;18.50;94.80;;;;;;5003621;28;20041;-85
2021/09/27 00:41:18;;;;;;;10.98;9.18;;;18.50;94.80;;;;;;5039111;28;20075;-85
2021/09/27 00:43:45;;;;;;;10.48;8.60;;;18.40;94.80;;;;;;5056775;28;20021;-85
2021/09/27 00:46:14;;;;;;;12.18;8.75;;;18.40;94.90;;;;;;5039057;28;20108;-85
2021/09/27 00:48:41;;;;;;;11.20;8.63;;;18.40;94.90;;;;;;5056437;28;20029;-85
2021/09/27 00:51:12;;;;;;;9.63;8.38;;;18.40;95.10;;;;;;5036170;28;20024;-87
2021/09/27 00:53:40;;;;;;;;;;;18.30;95.00;;;;;;5055948;28;20107;-85
2021/09/27 00:56:08;;;;;;;13.20;9.75;;;18.30;95.20;;;;;;5054814;28;20463;-85
2021/09/27 00:58:34;;;;;;;11.32;8.82;;;18.30;95.20;;;;;;5038129;28;20029;-84
2021/09/27 01:01:02;;;;;;;9.25;7.82;;;18.30;95.20;;;;;;5038107;28;20041;-85
2021/09/27 01:03:29;;;;;;;11.35;8.70;;;18.30;95.20;;;;;;5056676;28;20086;-85
2021/09/27 01:06:25;;;;;;;10.90;8.50;;;18.20;95.20;;;;;;5038910;28;20070;-85
2021/09/27 01:09:09;;;;;;;11.05;8.60;;;18.20;95.30;;;;;;5018031;28;20148;-86
2021/09/27 01:12:11;;;;;;;12.73;8.73;;;18.20;95.40;;;;;;5038628;28;20037;-85
2021/09/27 01:15:08;;;;;;;11.00;8.90;;;18.20;95.40;;;;;;5038299;28;20141;-86
2021/09/27 01:17:52;;;;;;;14.07;9.48;;;18.20;95.40;;;;;;5055095;28;20051;-85
2021/09/27 01:20:41;;;;;;;11.32;8.35;;;18.10;95.40;;;;;;5055724;28;20086;-85
2021/09/27 01:23:34;;;;;;;10.00;8.30;;;18.10;95.40;;;;;;5038034;28;20037;-86
2021/09/27 01:26:23;;;;;;;10.27;7.85;;;18.10;95.50;;;;;;5038426;28;20033;-86
2021/09/27 01:29:21;;;;;;;12.23;8.32;;;18.10;95.50;;;;;;5033648;28;20029;-84
2021/09/27 01:32:09;;;;;;;11.25;8.77;;;18.10;95.50;;;;;;5037859;28;20075;-85
2021/09/27 01:34:44;;;;;;;12.52;8.45;;;18.10;95.40;;;;;;5044282;28;20855;-85
2021/09/27 01:37:23;;;;;;;11.43;8.10;;;18.10;95.40;;;;;;5055970;28;20029;-93
2021/09/27 01:40:07;;;;;;;9.82;7.72;;;18.10;95.40;;;;;;5051011;28;20473;-86
2021/09/27 01:43:01;;;;;;;10.85;8.57;;;18.10;95.40;;;;;;5037633;28;20029;-85
2021/09/27 01:45:51;;;;;;;9.02;7.65;;;18.10;95.40;;;;;;5042658;28;20036;-85
2021/09/27 01:48:31;;;;;;;12.70;8.25;;;18.10;95.40;;;;;;5037583;28;20013;-84
2021/09/27 01:51:06;;;;;;;10.52;7.95;;;18.10;95.30;;;;;;5055720;28;20040;-85
2021/09/27 01:53:45;;;;;;;11.57;7.95;;;18.10;95.30;;;;;;5049845;28;20038;-86
2021/09/27 01:56:35;;;;;;;10.07;8.43;;;18.10;95.30;;;;;;5031445;28;20125;-84
2021/09/27 01:59:04;;;;;;;10.18;8.10;;;18.10;95.30;;;;;;5032894;28;20477;-85
2021/09/27 02:01:29;;;;;;;9.93;8.02;;;18.10;95.20;;;;;;5036092;28;20033;-85
2021/09/27 02:04:02;;;;;;;10.93;8.15;;;18.20;95.20;;;;;;5017739;28;20363;-85
2021/09/27 02:06:34;;;;;;;13.35;9.77;;;18.10;95.20;;;;;;5038873;28;20021;-86
2021/09/27 02:09:09;;;;;;;10.73;7.93;;;18.20;95.20;;;;;;5049532;28;20065;-89
2021/09/27 02:11:41;;;;;;;11.95;9.00;;;18.20;95.20;;;;;;5056614;28;20045;-85
2021/09/27 02:14:48;;;;;;;11.80;8.55;;;18.20;95.10;;;;;;5045669;28;20037;-90
2021/09/27 02:17:31;;;;;;;11.95;8.68;;;18.10;95.00;;;;;;5012194;28;20072;-85
2021/09/27 02:19:56;;;;;;;11.88;8.68;;;18.10;94.90;;;;;;5054751;28;20010;-86
2021/09/27 02:22:24;;;;;;;12.07;8.65;;;18.00;94.90;;;;;;5049079;28;20025;-85
2021/09/27 02:25:09;;;;;;;11.40;8.73;;;18.00;95.00;;;;;;5042916;28;20032;-85
2021/09/27 02:27:34;;;;;;;10.00;8.25;;;17.90;95.00;;;;;;5031400;28;20380;-88
2021/09/27 02:30:00;;;;;;;11.57;8.82;;;17.90;95.20;;;;;;4984885;28;20032;-85
2021/09/27 02:32:36;;;;;;;13.25;8.80;;;17.90;95.20;;;;;;5014416;28;20029;-85
2021/09/27 02:35:19;;;;;;;11.05;8.05;;;17.90;95.20;;;;;;5045698;28;20033;-85
2021/09/27 02:37:56;;;;;;;11.60;9.70;;;17.90;95.30;;;;;;5018276;28;20029;-84
2021/09/27 02:40:30;;;;;;;11.98;9.25;;;17.90;95.30;;;;;;5047333;28;20031;-85
2021/09/27 02:43:00;;;;;;;10.95;9.07;;;17.80;95.40;;;;;;5017858;28;20025;-85
2021/09/27 02:45:28;;;;;;;12.65;9.40;;;17.80;95.40;;;;;;5033708;28;20056;-86
2021/09/27 02:48:19;;;;;;;12.63;8.70;;;17.80;95.50;;;;;;5034139;28;20076;-85
2021/09/27 02:50:48;;;;;;;;;;;17.80;95.50;;;;;;5034633;28;20040;-85
2021/09/27 02:53:16;;;;;;;11.45;9.38;;;17.80;95.60;;;;;;5047167;28;19923;-86
2021/09/27 02:56:09;;;;;;;13.00;9.25;;;17.80;95.50;;;;;;5016071;28;20375;-88
2021/09/27 02:59:03;;;;;;;10.25;8.73;;;17.70;95.60;;;;;;5029849;28;20025;-87
2021/09/27 03:01:38;;;;;;;12.07;8.82;;;17.70;95.50;;;;;;5039539;28;20060;-85
2021/09/27 03:04:18;;;;;;;10.80;9.02;;;17.70;95.50;;;;;;5025503;28;20033;-85
2021/09/27 03:07:20;;;;;;;13.18;9.52;;;17.70;95.50;;;;;;5033984;28;20024;-85
2021/09/27 03:10:01;;;;;;;11.85;9.50;;;17.60;95.60;;;;;;4987016;28;20037;-86
2021/09/27 03:12:32;;;;;;;;;;;17.60;95.70;;;;;;5036474;28;20025;-86
2021/09/27 03:14:58;;;;;;;;;;;17.60;95.70;;;;;;5052902;28;20360;-86
2021/09/27 03:17:52;;;;;;;12.55;9.70;;;17.50;95.80;;;;;;5045236;28;19920;-84
2021/09/27 03:20:41;;;;;;;11.35;9.32;;;17.50;96.20;;;;;;5014226;28;20033;-86
2021/09/27 03:23:24;;;;;;;12.63;9.15;;;17.50;95.90;;;;;;5032416;28;20036;-85
2021/09/27 03:26:02;;;;;;;11.45;9.73;;;17.50;96.00;;;;;;5032617;28;20074;-92
2021/09/27 03:28:57;;;;;;;13.10;10.23;;;17.50;96.00;;;;;;5032725;28;20032;-85
2021/09/27 03:31:32;;;;;;;11.07;8.65;;;17.50;96.00;;;;;;5043856;28;20021;-85
2021/09/27 03:34:28;;;;;;;12.60;9.57;;;17.50;95.90;;;;;;5032374;28;20030;-85
2021/09/27 03:37:22;;;;;;;10.73;8.80;;;17.60;95.90;;;;;;5033931;28;20104;-85
2021/09/27 03:40:19;;;;;;;12.75;8.77;;;17.50;95.90;;;;;;5032800;28;20051;-86
2021/09/27 03:43:04;;;;;;;10.75;8.93;;;17.50;95.80;;;;;;5028126;28;20037;-85
2021/09/27 03:45:36;;;;;;;11.80;9.52;;;17.60;95.80;;;;;;5035507;28;20078;-87
2021/09/27 03:48:21;;;;;;;11.40;9.18;;;17.50;95.70;;;;;;5030551;28;20079;-85
2021/09/27 03:51:05;;;;;;;11.88;9.43;;;17.60;95.70;;;;;;5033538;28;20038;-84
2021/09/27 03:53:49;;;;;;;11.55;8.63;;;17.50;95.70;;;;;;5048260;28;20045;-86
2021/09/27 03:56:29;;;;;;;12.73;9.38;;;17.50;95.60;;;;;;5037682;28;20017;-85
2021/09/27 03:59:16;;;;;;;11.52;9.00;;;17.50;95.40;;;;;;5035198;28;20053;-84
2021/09/27 04:01:52;;;;;;;10.63;8.88;;;17.50;95.30;;;;;;5052998;28;20488;-85
2021/09/27 04:04:42;;;;;;;12.38;9.70;;;17.50;95.30;;;;;;5035736;28;20017;-85
2021/09/27 04:07:20;;;;;;;13.40;10.35;;;17.40;95.40;;;;;;5034870;28;20025;-86
2021/09/27 04:09:57;;;;;;;13.05;10.38;;;17.40;95.60;;;;;;5053355;28;20037;-84
2021/09/27 04:12:36;;;;;;;13.73;10.45;;;17.30;95.80;;;;;;5052725;28;20017;-84
2021/09/27 04:15:23;;;;;;;13.50;10.13;;;17.30;95.90;;;;;;5034661;28;20036;-85
2021/09/27 04:18:13;;;;;;;13.45;10.07;;;17.20;96.20;;;;;;5053451;28;20021;-85
2021/09/27 04:20:48;;;;;;;14.77;11.03;;;17.20;96.40;;;;;;5034998;28;20123;-85
2021/09/27 04:23:18;;;;;;;13.15;10.95;;;17.20;96.40;;;;;;5035635;28;20033;-85
2021/09/27 04:29:26;;;;;;;15.48;10.57;;;17.20;96.60;;;;;;5012762;28;20044;-87
2021/09/27 04:32:37;;;;;;;14.73;11.15;;;17.20;96.60;;;;;;4994431;28;20026;-84
2021/09/27 04:35:09;;;;;;;;;;;17.20;96.80;;;;;;5011690;28;20143;-86
2021/09/27 04:37:34;;;;;;;;;;;17.20;97.00;;;;;;4989159;28;19905;-86
2021/09/27 04:40:02;;;;;;;13.57;10.45;;;17.10;97.10;;;;;;5000773;28;19913;-85
2021/09/27 04:42:56;;;;;;;14.05;9.88;;;17.10;97.00;;;;;;5005732;28;20455;-84
2021/09/27 04:45:44;;;;;;;13.07;10.30;;;17.10;97.10;;;;;;4985661;28;20026;-85
2021/09/27 04:48:30;;;;;;;13.25;9.68;;;17.10;97.30;;;;;;5016240;28;20033;-84
2021/09/27 04:51:11;;;;;;;14.88;10.75;;;17.20;97.30;;;;;;4989915;28;20166;-89
2021/09/27 04:54:11;;;;;;;13.80;10.38;;;17.20;97.40;;;;;;5011462;28;20052;-85
2021/09/27 04:57:10;;;;;;;10.73;9.27;;;17.20;97.40;;;;;;4990823;28;20124;-84
2021/09/27 04:59:54;;;;;;;11.98;9.65;;;17.20;97.50;;;;;;4989091;28;20379;-86
2021/09/27 05:02:47;;;;;;;15.25;10.10;;;17.20;97.40;;;;;;5015576;28;20184;-82
2021/09/27 05:05:28;;;;;;;12.63;9.88;;;17.30;97.50;;;;;;4995552;28;20049;-83
2021/09/27 05:08:12;;;;;;;11.85;9.73;;;17.30;97.50;;;;;;5026818;28;20466;-83
2021/09/27 05:10:54;;;;;;;12.90;9.90;;;17.30;97.40;;;;;;5001052;28;20463;-83
2021/09/27 05:13:39;;;;;;;12.90;9.45;;;17.30;97.40;;;;;;5014958;28;20037;-83
2021/09/27 05:16:33;;;;;;;13.70;10.15;;;17.30;97.40;;;;;;5023354;28;20520;-84
2021/09/27 05:19:18;;;;;;;12.57;10.10;;;17.30;97.40;;;;;;5014051;28;20049;-89
2021/09/27 05:22:14;;;;;;;11.52;9.65;;;17.30;97.40;;;;;;5010787;28;20060;-84
2021/09/27 05:25:04;;;;;;;14.32;10.05;;;17.30;97.40;;;;;;5025280;28;20029;-83
2021/09/27 05:27:56;;;;;;;12.80;9.98;;;17.30;97.30;;;;;;5037249;28;20100;-83
2021/09/27 05:30:29;;;;;;;11.55;9.52;;;17.30;97.30;;;;;;5016921;28;20034;-85
2021/09/27 05:32:57;;;;;;;10.45;9.13;;;17.40;97.30;;;;;;5031032;28;20153;-86
2021/09/27 05:35:44;;;;;;;12.07;10.15;;;17.30;97.20;;;;;;5033124;28;20036;-85
2021/09/27 05:38:40;;;;;;;15.10;10.20;;;17.30;97.30;;;;;;5034232;28;20474;-86
2021/09/27 05:41:35;;;;;;;12.93;10.25;;;17.30;97.30;;;;;;5010510;28;20048;-83
2021/09/27 05:44:11;;;;;;;12.65;9.95;;;17.30;97.30;;;;;;5034540;28;20057;-90
2021/09/27 05:47:03;;;;;;;14.82;10.77;;;17.30;97.30;;;;;;5024536;28;20028;-86
2021/09/27 05:49:41;;;;;;;12.55;10.18;;;17.40;97.30;;;;;;5056494;28;20037;-86
2021/09/27 05:52:32;;;;;;;16.00;11.30;;;17.30;97.10;;;;;;5058552;28;20116;-90
2021/09/27 05:55:07;;;;;;;12.77;10.27;;;17.30;97.10;;;;;;5031140;28;20021;-84
2021/09/27 05:57:35;;;;;;;11.90;10.48;;;17.30;97.00;;;;;;5041584;28;20025;-94
2021/09/27 06:00:19;;;;;;;13.45;10.30;;;17.30;97.00;;;;;;5058563;28;20045;-87
2021/09/27 06:02:58;;;;;;;12.70;10.60;;;17.30;97.00;;;;;;5041217;28;20033;-87
2021/09/27 06:05:46;;;;;;;12.93;10.45;;;17.30;97.00;;;;;;5023775;28;20030;-83
2021/09/27 06:08:15;;;;;;;12.43;10.60;;;17.30;97.00;;;;;;5022675;28;20495;-84
2021/09/27 06:11:07;;;;;;;13.75;10.68;;;17.30;97.00;;;;;;5029512;28;20441;-84
2021/09/27 06:13:41;;;;;;;16.75;11.68;;;17.30;97.00;;;;;;5023430;28;20107;-83
2021/09/27 06:16:10;;;;;;;14.23;11.00;;;17.30;97.20;;;;;;5017642;28;20111;-84
2021/09/27 06:18:53;;;;;;;11.88;10.35;;;17.30;96.90;;;;;;5035446;28;20033;-84
2021/09/27 06:21:37;;;;;;;14.27;11.20;;;17.30;97.00;;;;;;5036542;28;20030;-83
2021/09/27 06:24:26;;;;;;;13.88;10.10;;;17.30;97.00;;;;;;5018176;28;20386;-83
2021/09/27 06:27:00;;;;;;;13.80;10.60;;;17.30;97.00;;;;;;5021314;28;20173;-83
2021/09/27 06:29:47;;;;;;;14.38;10.90;;;17.30;97.00;;;;;;5033932;28;20497;-83
2021/09/27 06:32:26;;;;;;;12.48;10.85;;;17.30;97.00;;;;;;5021787;28;20036;-84
2021/09/27 06:34:56;;;;;;;12.73;10.45;;;17.30;97.00;;;;;;5021448;28;20052;-84
2021/09/27 06:37:24;;;;;;;12.23;10.25;;;17.30;97.00;;;;;;5034132;28;20022;-86
2021/09/27 06:39:51;;;;;;;15.57;11.77;;;17.30;97.00;;;;;;5017619;28;20056;-87
2021/09/27 06:42:17;;;;;;;13.35;11.85;;;17.30;97.00;;;;;;5017093;28;20025;-84
2021/09/27 06:44:45;;;;;;;15.43;10.80;;;17.30;97.00;;;;;;5017413;28;20389;-84
2021/09/27 06:47:11;;;;;;;14.98;11.73;;;17.30;97.00;;;;;;5031251;28;20049;-84
2021/09/27 06:49:37;;;;;;;15.60;11.63;;;17.30;97.10;;;;;;5017111;28;20036;-85
2021/09/27 06:52:03;;;;;;;13.52;11.07;;;17.30;97.10;;;;;;5035664;28;20029;-84
2021/09/27 06:54:28;;;;;;;12.77;10.85;;;17.30;97.30;;;;;;5018096;28;20130;-84
2021/09/27 06:56:57;;;;;;;11.82;10.63;;;17.30;97.10;;;;;;4994064;28;20489;-84
2021/09/27 06:59:23;;;;;;;12.88;11.05;;;17.30;97.20;;;;;;5014355;28;20037;-84
2021/09/27 07:01:50;;;;;;;12.23;10.93;;;17.20;97.20;;;;;;5005037;28;20040;-85
2021/09/27 07:04:15;;;;;;;15.00;11.73;;;17.30;97.30;;;;;;5019244;28;20462;-85
2021/09/27 07:06:41;;;;;;;13.18;11.60;;;17.30;97.40;;;;;;5034597;28;20029;-89
2021/09/27 07:09:07;;;;;;;15.18;12.27;;;17.30;97.50;;;;;;5031203;28;20026;-85
2021/09/27 07:11:32;;;;;;;13.13;11.20;;;17.30;97.50;;;;;;4986296;28;20025;-85
2021/09/27 07:13:58;;;;;;;14.43;12.45;;;17.30;97.50;;;;;;4996330;28;20555;-85
2021/09/27 07:16:24;;;;;;;16.85;11.05;;;17.40;97.70;;;;;;5005020;28;20029;-85
2021/09/27 07:18:50;;;;;;;13.15;11.05;;;17.40;97.70;;;;;;5016576;28;20026;-85
2021/09/27 07:21:16;;;;;;;13.60;11.02;;;17.40;97.70;;;;;;4996015;28;20034;-85
2021/09/27 07:23:41;;;;;;;15.18;11.93;;;17.40;97.70;;;;;;5002202;28;20371;-84
2021/09/27 07:26:14;;;;;;;14.73;11.43;;;17.50;97.90;;;;;;5000757;28;20021;-84
2021/09/27 07:28:40;;;;;;;16.33;12.43;;;17.60;98.00;;;;;;5016217;28;20021;-84
2021/09/27 07:33:40;;;;;;;14.75;12.20;;;17.70;98.20;;;;;;5003779;28;20096;-90
2021/09/27 07:36:07;;;;;;;13.15;11.65;;;17.70;98.30;;;;;;4967723;28;20116;-84
2021/09/27 07:38:33;;;;;;;15.73;12.75;;;17.80;98.20;;;;;;4995487;28;20033;-84
2021/09/27 07:40:59;;;;;;;16.15;13.50;;;17.80;98.30;;;;;;5012981;28;20026;-83
2021/09/27 07:43:25;;;;;;;15.48;13.25;;;17.90;98.30;;;;;;4995442;28;20475;-83
2021/09/27 07:45:51;;;;;;;14.27;11.27;;;17.90;98.30;;;;;;5012856;28;20033;-83
2021/09/27 07:48:17;;;;;;;15.30;12.85;;;17.90;98.20;;;;;;4978910;28;20112;-83
2021/09/27 07:50:46;;;;;;;16.13;12.80;;;18.00;98.30;;;;;;4978923;28;20364;-83
2021/09/27 07:53:13;;;;;;;17.67;13.45;;;18.00;98.20;;;;;;4995033;28;20033;-83
2021/09/27 07:55:39;;;;;;;15.57;12.82;;;18.00;98.00;;;;;;4995166;28;20101;-83
2021/09/27 07:58:05;;;;;;;17.85;14.35;;;18.00;98.00;;;;;;5011449;28;20478;-83
2021/09/27 08:00:31;;;;;;;15.07;13.18;;;18.00;98.10;;;;;;5008826;28;20061;-83
2021/09/27 08:02:56;;;;;;;14.00;12.50;;;18.00;98.10;;;;;;4994982;28;20025;-83
2021/09/27 08:05:29;;;;;;;16.08;12.55;;;18.10;98.10;;;;;;5012506;28;20026;-83
2021/09/27 08:07:55;;;;;;;16.10;12.00;;;18.10;98.10;;;;;;4995054;28;20046;-84
2021/09/27 08:10:22;;;;;;;15.68;12.88;;;18.10;98.00;;;;;;4975435;28;20030;-84
2021/09/27 08:12:48;;;;;;;14.88;13.10;;;18.20;98.10;;;;;;4985430;28;20044;-84
2021/09/27 08:15:18;;;;;;;15.57;12.38;;;18.20;98.00;;;;;;4986388;28;20018;-83
2021/09/27 08:17:48;;;;;;;14.50;12.77;;;18.20;97.90;;;;;;4994527;28;20025;-84
2021/09/27 08:20:16;;;;;;;18.85;13.70;;;18.20;98.00;;;;;;4975703;28;20546;-84
2021/09/27 08:22:42;;;;;;;14.10;12.30;;;18.30;98.00;;;;;;5009637;28;20092;-84
2021/09/27 08:25:09;;;;;;;14.38;12.15;;;18.30;98.00;;;;;;5012408;28;20061;-84
2021/09/27 08:27:35;;;;;;;14.68;12.50;;;18.30;98.00;;;;;;4994319;28;20041;-84
2021/09/27 08:30:01;;;;;;;17.50;12.95;;;18.40;98.00;;;;;;5010485;28;20479;-84
2021/09/27 08:32:26;;;;;;;17.20;13.77;;;18.50;98.00;;;;;;5021831;28;20057;-84
2021/09/27 08:34:53;;;;;;;16.90;12.68;;;18.50;97.80;;;;;;4994942;28;20045;-84
2021/09/27 08:37:21;;;;;;;16.00;12.98;;;18.50;97.90;;;;;;4978677;28;20387;-83
2021/09/27 08:39:48;;;;;;;15.48;13.05;;;18.50;97.60;;;;;;4993935;28;20029;-84
2021/09/27 08:42:21;;;;;;;16.25;12.55;;;18.60;97.60;;;;;;4995007;28;20026;-85
2021/09/27 08:45:02;;;;;;;14.93;11.98;;;18.60;97.60;;;;;;5010739;28;20136;-84
2021/09/27 08:47:44;;;;;;;16.73;12.25;;;18.60;97.40;;;;;;4994129;28;20018;-84
2021/09/27 08:50:18;;;;;;;14.27;12.40;;;18.60;97.30;;;;;;5018469;28;20023;-83
2021/09/27 08:52:44;;;;;;;14.05;11.90;;;18.70;97.60;;;;;;5015718;28;20026;-84
2021/09/27 08:55:13;;;;;;;17.17;12.35;;;18.70;97.30;;;;;;4994123;28;20129;-85
2021/09/27 08:57:53;;;;;;;13.23;10.98;;;18.70;97.10;;;;;;5001036;28;20030;-84
2021/09/27 09:00:42;;;;;;;14.80;11.65;;;18.80;97.10;;;;;;5008291;28;20030;-84
2021/09/27 09:03:17;;;;;;;13.85;11.55;;;18.80;97.10;;;;;;5003634;28;20036;-84
2021/09/27 09:05:56;;;;;;;14.43;11.43;;;18.80;97.00;;;;;;4995083;28;20079;-85
2021/09/27 09:08:44;;;;;;;13.88;10.95;;;18.90;97.10;;;;;;5015978;28;20037;-85
2021/09/27 09:11:28;;;;;;;15.02;11.32;;;18.90;97.00;;;;;;5012325;28;20026;-84
2021/09/27 09:14:02;;;;;;;13.60;11.30;;;18.90;96.80;;;;;;5016215;28;20168;-84
2021/09/27 09:16:31;;;;;;;15.35;11.65;;;19.00;96.70;;;;;;5013690;28;20022;-85
2021/09/27 09:19:00;;;;;;;14.48;10.77;;;19.00;96.90;;;;;;5013764;28;20049;-85
2021/09/27 09:21:34;;;;;;;12.43;11.07;;;19.00;96.80;;;;;;5013652;28;20022;-85
2021/09/27 09:24:09;;;;;;;14.63;10.68;;;19.00;96.80;;;;;;4992145;28;20064;-86
2021/09/27 09:26:38;;;;;;;13.52;10.35;;;19.00;96.60;;;;;;5015100;28;20045;-86
2021/09/27 09:29:06;;;;;;;13.13;11.00;;;19.10;96.60;;;;;;5014695;28;20025;-85
2021/09/27 09:31:44;;;;;;;14.00;10.52;;;19.10;96.60;;;;;;5014391;28;20053;-85
2021/09/27 09:34:19;;;;;;;12.73;10.68;;;19.20;96.70;;;;;;5014817;28;20087;-85
2021/09/27 09:37:00;;;;;;;12.32;9.80;;;19.20;96.50;;;;;;4997909;28;20080;-85
2021/09/27 09:39:26;;;;;;;13.10;9.98;;;19.20;96.50;;;;;;5024513;28;20025;-85
2021/09/27 09:41:53;;;;;;;11.82;9.02;;;19.30;96.60;;;;;;5022985;28;20116;-84
2021/09/27 09:44:45;;;;;;;13.05;9.80;;;19.40;96.70;;;;;;5030058;28;20076;-85
2021/09/27 09:47:12;;;;;;;11.23;9.70;;;19.50;96.40;;;;;;5009871;28;20017;-84
2021/09/27 09:49:53;;;;;;;12.98;9.40;;;19.50;96.40;;;;;;5024906;28;20055;-85
2021/09/27 09:52:44;;;;;;;14.02;9.25;;;19.60;96.20;;;;;;5020388;28;20034;-91
2021/09/27 09:55:31;;;;;;;12.05;8.20;;;19.60;95.80;;;;;;5006027;28;20026;-89
2021/09/27 09:58:03;;;;;;;13.48;7.88;;;19.70;95.70;;;;;;5014761;28;20038;-90
2021/09/27 10:00:45;;;;;;;11.43;8.48;;;19.70;95.50;;;;;;4998433;28;20030;-90
2021/09/27 10:03:36;;;;;;;10.90;7.60;;;19.70;95.20;;;;;;5009700;28;20095;-90
2021/09/27 10:06:06;;;;;;;12.68;7.95;;;19.70;95.30;;;;;;4997374;28;20034;-91
2021/09/27 10:08:32;;;;;;;11.15;8.02;;;19.70;95.20;;;;;;5015977;28;20030;-90
2021/09/27 10:11:08;;;;;;;12.38;8.05;;;19.70;95.30;;;;;;4996905;28;20088;-89
2021/09/27 10:13:33;;;;;;;10.68;8.13;;;19.80;95.40;;;;;;5009268;28;20034;-89
2021/09/27 10:16:02;;;;;;;11.13;8.02;;;19.80;95.20;;;;;;4992465;28;20026;-89
2021/09/27 10:18:35;;;;;;;11.35;7.40;;;19.80;94.90;;;;;;5000485;28;20022;-90
2021/09/27 10:21:05;;;;;;;10.75;6.75;;;19.90;94.80;;;;;;5002597;28;20073;-90
2021/09/27 10:23:35;;;;;;;8.57;6.60;;;20.00;95.00;;;;;;4998858;28;20014;-90
2021/09/27 10:26:10;;;;;;;9.27;6.40;;;20.00;94.80;;;;;;5016231;28;20076;-91
2021/09/27 10:28:38;;;;;;;8.63;5.95;;;20.00;94.60;;;;;;5013977;28;20117;-91
2021/09/27 10:31:03;;;;;;;11.32;6.28;;;20.00;94.70;;;;;;4994334;28;20187;-90
2021/09/27 10:33:38;;;;;;;7.75;5.40;;;20.00;94.60;;;;;;5001760;28;20503;-91
2021/09/27 10:36:10;;;;;;;8.82;5.18;;;20.00;94.40;;;;;;5006486;28;20030;-91
2021/09/27 10:38:46;;;;;;;8.00;5.03;;;20.00;94.30;;;;;;5030537;28;20030;-91
2021/09/27 10:41:50;;;;;;;10.82;4.70;;;20.00;94.40;;;;;;5006427;28;20024;-90
2021/09/27 10:44:19;;;;;;;8.38;4.75;;;20.00;94.30;;;;;;4972178;28;20077;-91
2021/09/27 10:46:47;;;;;;;10.10;5.03;;;20.00;94.10;;;;;;5016956;28;20108;-91
2021/09/27 10:49:22;;;;;;;7.88;4.00;;;20.00;94.10;;;;;;5032554;28;20018;-91
2021/09/27 10:51:56;;;;;;;8.18;4.70;;;20.00;94.20;;;;;;5018758;28;20404;-91
2021/09/27 10:54:25;;;;;;;6.43;4.55;;;20.10;94.30;;;;;;5028818;28;20029;-91
2021/09/27 10:57:02;;;;;;;9.95;5.35;;;20.00;94.60;;;;;;5015625;28;20022;-89
2021/09/27 11:00:00;;;;;;;7.97;4.63;;;20.10;94.20;;;;;;5024209;28;20115;-90
2021/09/27 11:02:33;;;;;;;8.23;4.60;;;20.10;94.40;;;;;;5029145;28;20042;-89
2021/09/27 11:05:30;;;;;;;9.43;4.63;;;20.10;94.00;;;;;;5008940;28;20033;-90
2021/09/27 11:08:06;;;;;;;9.50;4.68;;;20.10;94.10;;;;;;5016596;28;20041;-89
2021/09/27 11:10:45;;;;;;;6.95;4.28;;;20.10;94.20;;;;;;5034081;28;20022;-91
2021/09/27 11:13:32;;;;;;;6.45;4.32;;;20.20;94.30;;;;;;5015685;28;20156;-90
2021/09/27 11:15:59;;;;;;;7.65;4.22;;;20.20;94.30;;;;;;5016148;28;20140;-91
2021/09/27 11:18:30;;;;;;;8.70;4.63;;;20.30;94.10;;;;;;5023838;28;20038;-90
2021/09/27 11:20:59;;;;;;;7.78;4.57;;;20.30;94.10;;;;;;4999507;28;20026;-89
2021/09/27 11:23:38;;;;;;;6.75;4.05;;;20.30;93.60;;;;;;5007433;28;20038;-89
2021/09/27 11:26:07;;;;;;;6.15;4.10;;;20.30;93.50;;;;;;5029124;28;20036;-90
2021/09/27 11:29:13;;;;;;;6.10;3.80;;;20.40;93.40;;;;;;5015050;28;20017;-89
2021/09/27 11:31:41;;;;;;;8.00;3.70;;;20.40;93.70;;;;;;5000928;28;20039;-89
2021/09/27 11:34:39;;;;;;;8.32;4.28;;;20.40;93.60;;;;;;5016715;28;20455;-90
2021/09/27 11:37:19;;;;;;;5.45;3.47;;;20.50;93.50;;;;;;5015307;28;20030;-90
2021/09/27 11:39:51;;;;;;;7.82;3.83;;;20.50;93.40;;;;;;5015410;28;20531;-91
2021/09/27 11:42:20;;;;;;;7.47;3.90;;;20.50;93.80;;;;;;4997978;28;20479;-91
2021/09/27 11:44:55;;;;;;;6.65;3.25;;;20.60;93.80;;;;;;5015812;28;20033;-91
2021/09/27 11:47:55;;;;;;;5.55;3.33;;;20.60;92.90;;;;;;5000927;28;20033;-90
2021/09/27 11:50:29;;;;;;;8.90;3.28;;;20.60;92.70;;;;;;5002748;28;20033;-90
2021/09/27 11:53:11;;;;;;;5.72;3.17;;;20.70;93.00;;;;;;5036077;23;20048;-91
2021/09/27 11:55:42;;;;;;;6.05;3.20;;;20.70;92.60;;;;;;5017847;28;20161;-87
2021/09/27 11:58:34;;;;;;;5.03;3.00;;;20.80;92.20;;;;;;5022556;28;20032;-86
2021/09/27 12:01:13;;;;;;;5.53;2.80;;;20.80;91.70;;;;;;5013268;28;20033;-88
2021/09/27 12:04:04;;;;;;;4.10;2.30;;;20.80;91.60;;;;;;5026098;28;20021;-86
2021/09/27 12:06:38;;;;;;;4.03;2.83;;;20.80;91.60;;;;;;5022555;28;20076;-87
2021/09/27 12:09:06;;;;;;;7.25;2.80;;;20.80;91.10;;;;;;5016334;28;20018;-88
2021/09/27 12:11:44;;;;;;;8.05;2.80;;;20.80;91.10;;;;;;5016892;28;20079;-88
2021/09/27 12:14:17;;;;;;;7.07;3.00;;;20.80;91.20;;;;;;5016613;28;20168;-87
2021/09/27 12:16:47;;;;;;;5.13;2.60;;;20.80;91.00;;;;;;5016509;28;20394;-88
2021/09/27 12:19:16;;;;;;;4.20;2.40;;;20.80;91.00;;;;;;5011164;28;20072;-87
2021/09/27 12:21:46;;;;;;;3.72;2.50;;;20.70;91.00;;;;;;5029515;28;20018;-87
2021/09/27 12:24:22;;;;;;;;;;;20.70;91.10;;;;;;5023128;28;20026;-86
2021/09/27 12:26:54;;;;;;;3.95;2.35;;;20.80;91.30;;;;;;5012413;28;20251;-87
2021/09/27 12:29:26;;;;;;;6.45;2.47;;;20.70;91.10;;;;;;5007492;28;20839;-88
2021/09/27 12:31:57;;;;;;;3.67;2.10;;;20.70;91.30;;;;;;5024014;28;20063;-86
2021/09/27 12:34:44;;;;;;;3.28;2.05;;;20.70;91.00;;;;;;5015674;28;20018;-86
2021/09/27 12:37:13;;;;;;;3.97;2.20;;;20.70;90.80;;;;;;5013390;28;20117;-86
2021/09/27 12:39:40;;;;;;;3.58;2.25;;;20.70;90.80;;;;;;5033212;28;20037;-86
2021/09/27 12:42:26;;;;;;;4.07;2.17;;;20.70;90.90;;;;;;5017586;28;20474;-85
2021/09/27 12:45:00;;;;;;;5.03;2.40;;;20.80;91.20;;;;;;5018444;28;20036;-86
2021/09/27 12:47:26;;;;;;;4.95;2.35;;;20.80;91.10;;;;;;5013160;28;20364;-86
2021/09/27 12:49:56;;;;;;;3.42;2.10;;;20.90;91.20;;;;;;5000310;28;20025;-87
2021/09/27 12:52:34;;;;;;;3.75;2.47;;;20.90;91.20;;;;;;5008802;28;20129;-85
2021/09/27 12:55:03;;;;;;;5.47;2.22;;;21.00;91.30;;;;;;5019327;28;20124;-85
2021/09/27 12:57:40;;;;;;;6.00;2.60;;;21.00;91.00;;;;;;5036700;28;20025;-85
2021/09/27 13:00:15;;;;;;;5.85;2.58;;;21.00;90.70;;;;;;5019221;28;20025;-87
2021/09/27 13:02:43;;;;;;;5.25;2.38;;;21.00;90.90;;;;;;5025904;28;20029;-87
2021/09/27 13:05:23;;;;;;;4.57;2.70;;;21.00;91.20;;;;;;5033038;28;20038;-87
2021/09/27 13:07:53;;;;;;;5.97;2.10;;;21.00;91.40;;;;;;5030846;28;20021;-84
2021/09/27 13:10:22;;;;;;;7.43;2.75;;;21.00;90.70;;;;;;5028475;28;20267;-85
2021/09/27 13:13:22;;;;;;;5.28;2.72;;;21.00;90.80;;;;;;5018854;28;20135;-85
2021/09/27 13:15:53;;;;;;;3.93;2.50;;;21.00;91.00;;;;;;5019065;28;20402;-85
2021/09/27 13:18:34;;;;;;;4.05;2.10;;;21.00;90.90;;;;;;5011629;28;20022;-85
2021/09/27 13:21:12;;;;;;;8.38;2.70;;;21.00;91.20;;;;;;5021110;28;20475;-85
2021/09/27 13:23:45;;;;;;;4.55;2.40;;;21.00;91.40;;;;;;5027143;28;20489;-86
2021/09/27 13:26:53;;;;;;;6.47;2.50;;;21.00;91.60;;;;;;5033102;28;20017;-86
2021/09/27 13:29:24;;;;;;;4.93;2.67;;;20.90;91.90;;;;;;4984285;28;20049;-86
2021/09/27 13:32:12;;;;;;;6.35;2.53;;;20.80;92.10;;;;;;5006560;28;20028;-86